sensor_id;sensor_type;location;lat;lon;timestamp;temperature;humidity
42141;DHT22;27809;51.864;5.646;2023-04-15T00:01:28;7.50;38.00
42141;DHT22;27809;51.864;5.646;2023-04-15T00:03:56;7.50;38.00
42141;DHT22;27809;51.864;5.646;2023-04-15T00:06:22;7.40;38.50
42141;DHT22;27809;51.864;5.646;2023-04-15T00:08:48;7.40;38.60
42141;DHT22;27809;51.864;5.646;2023-04-15T00:11:15;7.40;39.90
42141;DHT22;27809;51.864;5.646;2023-04-15T00:13:41;7.30;40.60
42141;DHT22;27809;51.864;5.646;2023-04-15T00:16:08;7.20;40.80
42141;DHT22;27809;51.864;5.646;2023-04-15T00:18:34;7.20;42.70
42141;DHT22;27809;51.864;5.646;2023-04-15T00:21:00;7.10;43.70
42141;DHT22;27809;51.864;5.646;2023-04-15T00:23:26;7.20;44.10
42141;DHT22;27809;51.864;5.646;2023-04-15T00:25:52;7.30;44.20
42141;DHT22;27809;51.864;5.646;2023-04-15T00:28:17;7.10;45.20
42141;DHT22;27809;51.864;5.646;2023-04-15T00:30:43;7.00;47.70
42141;DHT22;27809;51.864;5.646;2023-04-15T00:33:09;7.00;44.70
42141;DHT22;27809;51.864;5.646;2023-04-15T00:35:35;7.10;48.30
42141;DHT22;27809;51.864;5.646;2023-04-15T00:38:02;7.10;49.80
42141;DHT22;27809;51.864;5.646;2023-04-15T00:40:27;7.00;46.20
42141;DHT22;27809;51.864;5.646;2023-04-15T00:42:53;7.10;48.10
42141;DHT22;27809;51.864;5.646;2023-04-15T00:45:18;7.30;46.70
42141;DHT22;27809;51.864;5.646;2023-04-15T00:47:44;7.20;45.60
42141;DHT22;27809;51.864;5.646;2023-04-15T00:50:11;7.10;45.30
42141;DHT22;27809;51.864;5.646;2023-04-15T00:52:37;6.90;51.60
42141;DHT22;27809;51.864;5.646;2023-04-15T00:55:03;6.70;49.60
42141;DHT22;27809;51.864;5.646;2023-04-15T00:57:30;6.70;51.70
42141;DHT22;27809;51.864;5.646;2023-04-15T00:59:56;6.60;53.50
42141;DHT22;27809;51.864;5.646;2023-04-15T01:02:22;6.60;55.70
42141;DHT22;27809;51.864;5.646;2023-04-15T01:04:48;6.40;59.00
42141;DHT22;27809;51.864;5.646;2023-04-15T01:07:14;6.20;64.40
42141;DHT22;27809;51.864;5.646;2023-04-15T01:09:40;6.20;71.40
42141;DHT22;27809;51.864;5.646;2023-04-15T01:12:06;6.30;71.60
42141;DHT22;27809;51.864;5.646;2023-04-15T01:14:32;6.30;73.30
42141;DHT22;27809;51.864;5.646;2023-04-15T01:16:58;6.30;77.00
42141;DHT22;27809;51.864;5.646;2023-04-15T01:19:24;6.40;76.80
42141;DHT22;27809;51.864;5.646;2023-04-15T01:21:49;6.50;76.30
42141;DHT22;27809;51.864;5.646;2023-04-15T01:24:17;6.40;75.90
42141;DHT22;27809;51.864;5.646;2023-04-15T01:26:43;6.40;75.20
42141;DHT22;27809;51.864;5.646;2023-04-15T01:29:09;6.30;74.60
42141;DHT22;27809;51.864;5.646;2023-04-15T01:31:35;6.30;73.10
42141;DHT22;27809;51.864;5.646;2023-04-15T01:34:01;6.20;76.30
42141;DHT22;27809;51.864;5.646;2023-04-15T01:36:27;6.20;74.20
42141;DHT22;27809;51.864;5.646;2023-04-15T01:38:53;6.20;74.00
42141;DHT22;27809;51.864;5.646;2023-04-15T01:41:26;6.30;75.00
42141;DHT22;27809;51.864;5.646;2023-04-15T01:43:52;6.20;72.60
42141;DHT22;27809;51.864;5.646;2023-04-15T01:46:18;6.00;74.20
42141;DHT22;27809;51.864;5.646;2023-04-15T01:48:43;5.90;76.90
42141;DHT22;27809;51.864;5.646;2023-04-15T01:51:09;6.10;79.70
42141;DHT22;27809;51.864;5.646;2023-04-15T01:53:34;6.30;78.70
42141;DHT22;27809;51.864;5.646;2023-04-15T01:56:00;6.30;79.50
42141;DHT22;27809;51.864;5.646;2023-04-15T01:58:25;6.30;78.90
42141;DHT22;27809;51.864;5.646;2023-04-15T02:00:51;6.30;79.50
42141;DHT22;27809;51.864;5.646;2023-04-15T02:03:17;6.40;81.50
42141;DHT22;27809;51.864;5.646;2023-04-15T02:05:42;6.50;81.50
42141;DHT22;27809;51.864;5.646;2023-04-15T02:08:08;6.50;81.70
42141;DHT22;27809;51.864;5.646;2023-04-15T02:10:33;6.60;83.20
42141;DHT22;27809;51.864;5.646;2023-04-15T02:12:59;6.60;81.90
42141;DHT22;27809;51.864;5.646;2023-04-15T02:15:25;6.50;83.60
42141;DHT22;27809;51.864;5.646;2023-04-15T02:17:51;6.50;87.00
42141;DHT22;27809;51.864;5.646;2023-04-15T02:20:20;6.60;85.40
42141;DHT22;27809;51.864;5.646;2023-04-15T02:22:46;6.70;86.10
42141;DHT22;27809;51.864;5.646;2023-04-15T02:25:12;6.60;85.10
42141;DHT22;27809;51.864;5.646;2023-04-15T02:27:38;6.70;82.60
42141;DHT22;27809;51.864;5.646;2023-04-15T02:30:04;6.70;83.60
42141;DHT22;27809;51.864;5.646;2023-04-15T02:32:30;6.70;83.00
42141;DHT22;27809;51.864;5.646;2023-04-15T02:34:55;6.70;82.20
42141;DHT22;27809;51.864;5.646;2023-04-15T02:37:21;6.70;83.80
42141;DHT22;27809;51.864;5.646;2023-04-15T02:39:47;6.40;80.80
42141;DHT22;27809;51.864;5.646;2023-04-15T02:42:13;6.40;85.90
42141;DHT22;27809;51.864;5.646;2023-04-15T02:44:38;6.40;83.10
42141;DHT22;27809;51.864;5.646;2023-04-15T02:47:04;6.10;84.30
42141;DHT22;27809;51.864;5.646;2023-04-15T02:49:31;6.00;89.00
42141;DHT22;27809;51.864;5.646;2023-04-15T02:51:57;6.10;90.90
42141;DHT22;27809;51.864;5.646;2023-04-15T02:54:24;6.00;90.70
42141;DHT22;27809;51.864;5.646;2023-04-15T02:56:50;6.20;92.00
42141;DHT22;27809;51.864;5.646;2023-04-15T02:59:19;6.20;92.20
42141;DHT22;27809;51.864;5.646;2023-04-15T03:01:45;6.30;93.10
42141;DHT22;27809;51.864;5.646;2023-04-15T03:04:10;6.40;92.80
42141;DHT22;27809;51.864;5.646;2023-04-15T03:06:36;6.50;93.40
42141;DHT22;27809;51.864;5.646;2023-04-15T03:09:01;6.50;92.40
42141;DHT22;27809;51.864;5.646;2023-04-15T03:11:28;6.60;92.50
42141;DHT22;27809;51.864;5.646;2023-04-15T03:13:54;6.60;92.20
42141;DHT22;27809;51.864;5.646;2023-04-15T03:16:19;6.60;91.90
42141;DHT22;27809;51.864;5.646;2023-04-15T03:18:45;6.60;92.70
42141;DHT22;27809;51.864;5.646;2023-04-15T03:21:10;6.60;92.90
42141;DHT22;27809;51.864;5.646;2023-04-15T03:23:36;6.60;94.20
42141;DHT22;27809;51.864;5.646;2023-04-15T03:26:02;6.60;93.40
42141;DHT22;27809;51.864;5.646;2023-04-15T03:28:28;6.60;94.40
42141;DHT22;27809;51.864;5.646;2023-04-15T03:30:54;6.60;94.80
42141;DHT22;27809;51.864;5.646;2023-04-15T03:33:20;6.60;95.30
42141;DHT22;27809;51.864;5.646;2023-04-15T03:35:45;6.60;94.90
42141;DHT22;27809;51.864;5.646;2023-04-15T03:38:11;6.60;96.50
42141;DHT22;27809;51.864;5.646;2023-04-15T03:40:39;6.70;95.60
42141;DHT22;27809;51.864;5.646;2023-04-15T03:43:05;6.70;95.40
42141;DHT22;27809;51.864;5.646;2023-04-15T03:45:31;6.60;96.90
42141;DHT22;27809;51.864;5.646;2023-04-15T03:47:56;6.60;97.80
42141;DHT22;27809;51.864;5.646;2023-04-15T03:50:22;6.50;98.10
42141;DHT22;27809;51.864;5.646;2023-04-15T03:52:47;6.50;99.50
42141;DHT22;27809;51.864;5.646;2023-04-15T03:55:13;6.50;99.80
42141;DHT22;27809;51.864;5.646;2023-04-15T03:57:39;6.40;99.90
42141;DHT22;27809;51.864;5.646;2023-04-15T04:00:06;6.50;99.90
42141;DHT22;27809;51.864;5.646;2023-04-15T04:02:33;6.40;99.90
42141;DHT22;27809;51.864;5.646;2023-04-15T04:04:59;6.30;99.90
42141;DHT22;27809;51.864;5.646;2023-04-15T04:07:25;6.30;99.90
42141;DHT22;27809;51.864;5.646;2023-04-15T04:09:50;6.30;99.90
42141;DHT22;27809;51.864;5.646;2023-04-15T04:12:16;6.30;99.90
42141;DHT22;27809;51.864;5.646;2023-04-15T04:14:41;6.20;99.90
42141;DHT22;27809;51.864;5.646;2023-04-15T04:17:07;6.30;99.90
42141;DHT22;27809;51.864;5.646;2023-04-15T04:19:33;6.20;99.90
42141;DHT22;27809;51.864;5.646;2023-04-15T04:21:58;6.30;99.90
42141;DHT22;27809;51.864;5.646;2023-04-15T04:24:24;6.30;99.90
42141;DHT22;27809;51.864;5.646;2023-04-15T04:26:50;6.30;99.90
42141;DHT22;27809;51.864;5.646;2023-04-15T04:29:15;6.30;99.90
42141;DHT22;27809;51.864;5.646;2023-04-15T04:31:41;6.20;99.90
42141;DHT22;27809;51.864;5.646;2023-04-15T04:34:06;6.10;99.90
42141;DHT22;27809;51.864;5.646;2023-04-15T04:36:32;5.70;99.90
42141;DHT22;27809;51.864;5.646;2023-04-15T04:38:57;5.80;99.90
42141;DHT22;27809;51.864;5.646;2023-04-15T04:41:23;5.80;99.90
42141;DHT22;27809;51.864;5.646;2023-04-15T04:43:48;5.80;99.90
42141;DHT22;27809;51.864;5.646;2023-04-15T04:46:14;5.80;99.90
42141;DHT22;27809;51.864;5.646;2023-04-15T04:48:39;5.80;99.90
42141;DHT22;27809;51.864;5.646;2023-04-15T04:51:05;5.90;99.90
42141;DHT22;27809;51.864;5.646;2023-04-15T04:53:32;5.70;99.90
42141;DHT22;27809;51.864;5.646;2023-04-15T04:55:57;5.70;99.90
42141;DHT22;27809;51.864;5.646;2023-04-15T04:58:23;5.70;99.90
42141;DHT22;27809;51.864;5.646;2023-04-15T05:00:48;5.70;99.90
42141;DHT22;27809;51.864;5.646;2023-04-15T05:03:14;5.70;99.90
42141;DHT22;27809;51.864;5.646;2023-04-15T05:05:39;5.60;99.90
42141;DHT22;27809;51.864;5.646;2023-04-15T05:08:06;5.60;99.90
42141;DHT22;27809;51.864;5.646;2023-04-15T05:10:32;5.50;99.90
42141;DHT22;27809;51.864;5.646;2023-04-15T05:12:57;5.30;99.90
42141;DHT22;27809;51.864;5.646;2023-04-15T05:15:23;5.30;99.90
42141;DHT22;27809;51.864;5.646;2023-04-15T05:17:49;5.20;99.90
42141;DHT22;27809;51.864;5.646;2023-04-15T05:20:14;5.30;99.90
42141;DHT22;27809;51.864;5.646;2023-04-15T05:22:40;5.30;99.90
42141;DHT22;27809;51.864;5.646;2023-04-15T05:25:05;5.30;99.90
42141;DHT22;27809;51.864;5.646;2023-04-15T05:27:31;5.30;99.90
42141;DHT22;27809;51.864;5.646;2023-04-15T05:29:57;5.40;99.90
42141;DHT22;27809;51.864;5.646;2023-04-15T05:32:22;5.30;99.90
42141;DHT22;27809;51.864;5.646;2023-04-15T05:34:48;5.40;99.90
42141;DHT22;27809;51.864;5.646;2023-04-15T05:37:13;5.50;99.90
42141;DHT22;27809;51.864;5.646;2023-04-15T05:39:39;5.60;99.90
42141;DHT22;27809;51.864;5.646;2023-04-15T05:42:04;5.70;99.90
42141;DHT22;27809;51.864;5.646;2023-04-15T05:44:30;5.70;99.90
42141;DHT22;27809;51.864;5.646;2023-04-15T05:46:56;5.80;99.90
42141;DHT22;27809;51.864;5.646;2023-04-15T05:49:22;5.90;99.90
42141;DHT22;27809;51.864;5.646;2023-04-15T05:51:48;6.10;99.90
42141;DHT22;27809;51.864;5.646;2023-04-15T05:54:13;6.30;99.90
42141;DHT22;27809;51.864;5.646;2023-04-15T05:56:39;6.40;99.90
42141;DHT22;27809;51.864;5.646;2023-04-15T05:59:04;6.50;99.90
42141;DHT22;27809;51.864;5.646;2023-04-15T06:01:31;6.60;99.90
42141;DHT22;27809;51.864;5.646;2023-04-15T06:03:57;6.60;99.90
42141;DHT22;27809;51.864;5.646;2023-04-15T06:06:22;6.70;99.90
42141;DHT22;27809;51.864;5.646;2023-04-15T06:08:48;6.60;99.90
42141;DHT22;27809;51.864;5.646;2023-04-15T06:11:14;6.70;99.90
42141;DHT22;27809;51.864;5.646;2023-04-15T06:13:39;7.00;99.90
42141;DHT22;27809;51.864;5.646;2023-04-15T06:16:06;7.10;99.90
42141;DHT22;27809;51.864;5.646;2023-04-15T06:18:32;7.10;99.90
42141;DHT22;27809;51.864;5.646;2023-04-15T06:20:57;7.20;99.90
42141;DHT22;27809;51.864;5.646;2023-04-15T06:23:23;7.30;99.90
42141;DHT22;27809;51.864;5.646;2023-04-15T06:25:49;7.40;99.90
42141;DHT22;27809;51.864;5.646;2023-04-15T06:28:14;7.50;99.90
42141;DHT22;27809;51.864;5.646;2023-04-15T06:30:40;7.60;99.90
42141;DHT22;27809;51.864;5.646;2023-04-15T06:33:05;7.80;99.90
42141;DHT22;27809;51.864;5.646;2023-04-15T06:35:31;7.80;99.90
42141;DHT22;27809;51.864;5.646;2023-04-15T06:37:57;7.70;99.90
42141;DHT22;27809;51.864;5.646;2023-04-15T06:40:23;7.80;99.90
42141;DHT22;27809;51.864;5.646;2023-04-15T06:42:48;7.80;99.90
42141;DHT22;27809;51.864;5.646;2023-04-15T06:45:14;7.90;99.90
42141;DHT22;27809;51.864;5.646;2023-04-15T06:47:40;8.10;99.90
42141;DHT22;27809;51.864;5.646;2023-04-15T06:50:06;8.00;99.90
42141;DHT22;27809;51.864;5.646;2023-04-15T06:52:34;8.10;99.90
42141;DHT22;27809;51.864;5.646;2023-04-15T06:55:00;8.20;99.90
42141;DHT22;27809;51.864;5.646;2023-04-15T06:57:26;8.30;99.90
42141;DHT22;27809;51.864;5.646;2023-04-15T06:59:53;8.40;99.90
42141;DHT22;27809;51.864;5.646;2023-04-15T07:02:19;8.60;99.90
42141;DHT22;27809;51.864;5.646;2023-04-15T07:04:45;8.70;99.90
42141;DHT22;27809;51.864;5.646;2023-04-15T07:07:10;8.80;99.90
42141;DHT22;27809;51.864;5.646;2023-04-15T07:09:36;8.90;99.90
42141;DHT22;27809;51.864;5.646;2023-04-15T07:12:02;8.90;99.90
42141;DHT22;27809;51.864;5.646;2023-04-15T07:14:28;8.90;99.90
42141;DHT22;27809;51.864;5.646;2023-04-15T07:16:54;9.00;99.90
42141;DHT22;27809;51.864;5.646;2023-04-15T07:19:20;9.20;99.90
42141;DHT22;27809;51.864;5.646;2023-04-15T07:21:46;9.40;99.90
42141;DHT22;27809;51.864;5.646;2023-04-15T07:24:11;9.60;99.90
42141;DHT22;27809;51.864;5.646;2023-04-15T07:26:41;9.70;99.90
42141;DHT22;27809;51.864;5.646;2023-04-15T07:29:06;9.70;99.90
42141;DHT22;27809;51.864;5.646;2023-04-15T07:31:32;9.90;99.90
42141;DHT22;27809;51.864;5.646;2023-04-15T07:33:57;9.80;99.80
42141;DHT22;27809;51.864;5.646;2023-04-15T07:36:24;9.80;99.90
42141;DHT22;27809;51.864;5.646;2023-04-15T07:38:49;9.70;94.90
42141;DHT22;27809;51.864;5.646;2023-04-15T07:41:15;9.70;90.70
42141;DHT22;27809;51.864;5.646;2023-04-15T07:43:40;9.90;91.90
42141;DHT22;27809;51.864;5.646;2023-04-15T07:46:06;10.10;92.30
42141;DHT22;27809;51.864;5.646;2023-04-15T07:48:31;10.10;85.30
42141;DHT22;27809;51.864;5.646;2023-04-15T07:50:58;10.10;72.10
42141;DHT22;27809;51.864;5.646;2023-04-15T07:53:23;10.00;69.80
42141;DHT22;27809;51.864;5.646;2023-04-15T07:55:49;10.10;73.30
42141;DHT22;27809;51.864;5.646;2023-04-15T07:58:15;10.20;71.00
42141;DHT22;27809;51.864;5.646;2023-04-15T08:00:40;10.30;70.70
42141;DHT22;27809;51.864;5.646;2023-04-15T08:03:06;10.50;66.90
42141;DHT22;27809;51.864;5.646;2023-04-15T08:05:31;10.70;71.60
42141;DHT22;27809;51.864;5.646;2023-04-15T08:07:57;10.60;59.40
42141;DHT22;27809;51.864;5.646;2023-04-15T08:10:23;10.70;56.10
42141;DHT22;27809;51.864;5.646;2023-04-15T08:12:48;10.70;52.50
42141;DHT22;27809;51.864;5.646;2023-04-15T08:15:14;10.90;53.40
42141;DHT22;27809;51.864;5.646;2023-04-15T08:17:39;10.80;48.90
42141;DHT22;27809;51.864;5.646;2023-04-15T08:20:05;10.80;52.60
42141;DHT22;27809;51.864;5.646;2023-04-15T08:22:31;10.70;51.30
42141;DHT22;27809;51.864;5.646;2023-04-15T08:24:56;10.70;54.90
42141;DHT22;27809;51.864;5.646;2023-04-15T08:27:22;10.90;53.00
42141;DHT22;27809;51.864;5.646;2023-04-15T08:29:47;11.10;52.20
42141;DHT22;27809;51.864;5.646;2023-04-15T08:32:13;11.20;52.00
42141;DHT22;27809;51.864;5.646;2023-04-15T08:34:39;11.30;48.90
42141;DHT22;27809;51.864;5.646;2023-04-15T08:37:04;11.20;55.20
42141;DHT22;27809;51.864;5.646;2023-04-15T08:39:30;11.70;49.50
42141;DHT22;27809;51.864;5.646;2023-04-15T08:42:03;12.00;43.70
42141;DHT22;27809;51.864;5.646;2023-04-15T08:44:35;11.70;42.30
42141;DHT22;27809;51.864;5.646;2023-04-15T08:47:07;11.70;41.10
42141;DHT22;27809;51.864;5.646;2023-04-15T08:49:36;11.90;39.80
42141;DHT22;27809;51.864;5.646;2023-04-15T08:52:03;11.80;46.60
42141;DHT22;27809;51.864;5.646;2023-04-15T08:54:30;11.50;46.40
42141;DHT22;27809;51.864;5.646;2023-04-15T08:56:57;11.90;42.20
42141;DHT22;27809;51.864;5.646;2023-04-15T08:59:23;11.80;41.60
42141;DHT22;27809;51.864;5.646;2023-04-15T09:01:49;12.30;29.70
42141;DHT22;27809;51.864;5.646;2023-04-15T09:04:16;11.90;39.80
42141;DHT22;27809;51.864;5.646;2023-04-15T09:06:41;11.70;41.20
42141;DHT22;27809;51.864;5.646;2023-04-15T09:09:07;12.40;40.70
42141;DHT22;27809;51.864;5.646;2023-04-15T09:11:33;11.80;31.80
42141;DHT22;27809;51.864;5.646;2023-04-15T09:13:59;12.30;38.70
42141;DHT22;27809;51.864;5.646;2023-04-15T09:16:24;12.10;32.40
42141;DHT22;27809;51.864;5.646;2023-04-15T09:18:50;12.40;25.20
42141;DHT22;27809;51.864;5.646;2023-04-15T09:21:16;12.50;32.60
42141;DHT22;27809;51.864;5.646;2023-04-15T09:23:55;12.70;37.50
42141;DHT22;27809;51.864;5.646;2023-04-15T09:26:37;12.40;31.00
42141;DHT22;27809;51.864;5.646;2023-04-15T09:29:06;11.80;37.40
42141;DHT22;27809;51.864;5.646;2023-04-15T09:31:31;11.60;35.90
42141;DHT22;27809;51.864;5.646;2023-04-15T09:33:57;11.80;34.90
42141;DHT22;27809;51.864;5.646;2023-04-15T09:36:23;11.80;36.30
42141;DHT22;27809;51.864;5.646;2023-04-15T09:38:57;12.10;31.40
42141;DHT22;27809;51.864;5.646;2023-04-15T09:41:24;11.90;30.00
42141;DHT22;27809;51.864;5.646;2023-04-15T09:43:50;12.50;25.60
42141;DHT22;27809;51.864;5.646;2023-04-15T09:46:15;12.50;26.20
42141;DHT22;27809;51.864;5.646;2023-04-15T09:48:41;13.00;20.40
42141;DHT22;27809;51.864;5.646;2023-04-15T09:51:07;13.30;18.70
42141;DHT22;27809;51.864;5.646;2023-04-15T09:53:35;13.70;10.10
42141;DHT22;27809;51.864;5.646;2023-04-15T09:56:01;13.60;14.40
42141;DHT22;27809;51.864;5.646;2023-04-15T09:58:33;13.90;11.10
42141;DHT22;27809;51.864;5.646;2023-04-15T10:01:01;13.80;19.50
42141;DHT22;27809;51.864;5.646;2023-04-15T10:03:29;14.20;13.60
42141;DHT22;27809;51.864;5.646;2023-04-15T10:05:57;14.70;1.30
42141;DHT22;27809;51.864;5.646;2023-04-15T10:08:26;14.70;13.10
42141;DHT22;27809;51.864;5.646;2023-04-15T10:10:52;15.10;1.00
42141;DHT22;27809;51.864;5.646;2023-04-15T10:13:19;15.00;3.80
42141;DHT22;27809;51.864;5.646;2023-04-15T10:16:11;14.60;1.60
42141;DHT22;27809;51.864;5.646;2023-04-15T10:18:42;14.90;3.20
42141;DHT22;27809;51.864;5.646;2023-04-15T10:21:08;15.50;3.70
42141;DHT22;27809;51.864;5.646;2023-04-15T10:23:34;15.50;4.10
42141;DHT22;27809;51.864;5.646;2023-04-15T10:26:00;17.40;1.00
42141;DHT22;27809;51.864;5.646;2023-04-15T10:28:27;17.60;1.00
42141;DHT22;27809;51.864;5.646;2023-04-15T10:30:52;18.40;1.00
42141;DHT22;27809;51.864;5.646;2023-04-15T10:33:20;16.50;1.00
42141;DHT22;27809;51.864;5.646;2023-04-15T10:35:47;15.20;1.00
42141;DHT22;27809;51.864;5.646;2023-04-15T10:38:33;14.80;1.00
42141;DHT22;27809;51.864;5.646;2023-04-15T10:46:19;15.20;1.00
42141;DHT22;27809;51.864;5.646;2023-04-15T10:48:52;15.80;1.00
42141;DHT22;27809;51.864;5.646;2023-04-15T10:51:27;15.10;1.00
42141;DHT22;27809;51.864;5.646;2023-04-15T10:53:59;14.80;1.90
42141;DHT22;27809;51.864;5.646;2023-04-15T10:56:26;13.90;1.00
42141;DHT22;27809;51.864;5.646;2023-04-15T10:58:52;14.30;1.00
42141;DHT22;27809;51.864;5.646;2023-04-15T11:01:19;14.60;1.00
42141;DHT22;27809;51.864;5.646;2023-04-15T11:03:47;14.10;7.50
42141;DHT22;27809;51.864;5.646;2023-04-15T11:06:13;14.20;7.40
42141;DHT22;27809;51.864;5.646;2023-04-15T11:08:57;14.30;7.20
42141;DHT22;27809;51.864;5.646;2023-04-15T11:14:27;14.10;3.40
42141;DHT22;27809;51.864;5.646;2023-04-15T11:16:53;13.80;7.40
42141;DHT22;27809;51.864;5.646;2023-04-15T11:19:18;13.50;7.90
42141;DHT22;27809;51.864;5.646;2023-04-15T11:21:44;13.70;9.90
42141;DHT22;27809;51.864;5.646;2023-04-15T11:24:09;14.20;6.80
42141;DHT22;27809;51.864;5.646;2023-04-15T11:26:35;15.00;12.10
42141;DHT22;27809;51.864;5.646;2023-04-15T11:29:00;14.20;5.50
42141;DHT22;27809;51.864;5.646;2023-04-15T11:31:26;14.30;1.00
42141;DHT22;27809;51.864;5.646;2023-04-15T11:34:01;14.90;1.40
42141;DHT22;27809;51.864;5.646;2023-04-15T11:36:28;15.60;1.00
42141;DHT22;27809;51.864;5.646;2023-04-15T11:38:54;15.50;1.00
42141;DHT22;27809;51.864;5.646;2023-04-15T11:41:24;14.70;1.00
42141;DHT22;27809;51.864;5.646;2023-04-15T11:43:50;14.70;5.00
42141;DHT22;27809;51.864;5.646;2023-04-15T11:46:16;15.00;1.00
42141;DHT22;27809;51.864;5.646;2023-04-15T11:48:43;14.50;1.00
42141;DHT22;27809;51.864;5.646;2023-04-15T11:51:09;14.80;3.30
42141;DHT22;27809;51.864;5.646;2023-04-15T11:53:42;15.20;10.10
42141;DHT22;27809;51.864;5.646;2023-04-15T11:56:10;15.20;1.00
42141;DHT22;27809;51.864;5.646;2023-04-15T11:58:36;15.10;1.00
42141;DHT22;27809;51.864;5.646;2023-04-15T12:01:03;15.30;1.00
42141;DHT22;27809;51.864;5.646;2023-04-15T12:06:12;14.60;1.00
42141;DHT22;27809;51.864;5.646;2023-04-15T12:09:07;14.50;1.00
42141;DHT22;27809;51.864;5.646;2023-04-15T12:16:53;13.80;2.00
42141;DHT22;27809;51.864;5.646;2023-04-15T12:19:23;14.60;1.50
42141;DHT22;27809;51.864;5.646;2023-04-15T12:21:50;14.50;1.00
42141;DHT22;27809;51.864;5.646;2023-04-15T12:24:20;14.80;1.00
42141;DHT22;27809;51.864;5.646;2023-04-15T12:26:49;14.50;1.00
42141;DHT22;27809;51.864;5.646;2023-04-15T12:29:16;14.60;1.00
42141;DHT22;27809;51.864;5.646;2023-04-15T12:31:49;15.30;1.00
42141;DHT22;27809;51.864;5.646;2023-04-15T12:34:16;14.30;1.00
42141;DHT22;27809;51.864;5.646;2023-04-15T12:36:41;14.90;4.50
42141;DHT22;27809;51.864;5.646;2023-04-15T12:39:08;15.20;1.00
42141;DHT22;27809;51.864;5.646;2023-04-15T12:41:33;15.60;1.00
42141;DHT22;27809;51.864;5.646;2023-04-15T12:43:59;15.40;1.00
42141;DHT22;27809;51.864;5.646;2023-04-15T12:46:25;15.40;1.00
42141;DHT22;27809;51.864;5.646;2023-04-15T12:48:51;15.00;1.00
42141;DHT22;27809;51.864;5.646;2023-04-15T12:51:17;15.40;1.00
42141;DHT22;27809;51.864;5.646;2023-04-15T12:53:43;15.40;1.00
42141;DHT22;27809;51.864;5.646;2023-04-15T12:56:09;15.20;1.00
42141;DHT22;27809;51.864;5.646;2023-04-15T12:58:34;15.50;1.00
42141;DHT22;27809;51.864;5.646;2023-04-15T13:01:00;14.50;1.00
42141;DHT22;27809;51.864;5.646;2023-04-15T13:03:25;15.00;2.50
42141;DHT22;27809;51.864;5.646;2023-04-15T13:05:51;15.20;1.00
42141;DHT22;27809;51.864;5.646;2023-04-15T13:08:17;14.10;2.10
42141;DHT22;27809;51.864;5.646;2023-04-15T13:10:42;14.10;2.90
42141;DHT22;27809;51.864;5.646;2023-04-15T13:13:08;14.80;1.00
42141;DHT22;27809;51.864;5.646;2023-04-15T13:15:34;14.90;1.00
42141;DHT22;27809;51.864;5.646;2023-04-15T13:17:59;15.20;2.00
42141;DHT22;27809;51.864;5.646;2023-04-15T13:20:25;14.70;1.00
42141;DHT22;27809;51.864;5.646;2023-04-15T13:22:54;14.80;1.00
42141;DHT22;27809;51.864;5.646;2023-04-15T13:25:19;14.80;1.00
42141;DHT22;27809;51.864;5.646;2023-04-15T13:27:45;13.90;9.40
42141;DHT22;27809;51.864;5.646;2023-04-15T13:30:11;14.50;4.00
42141;DHT22;27809;51.864;5.646;2023-04-15T13:32:37;15.30;1.00
42141;DHT22;27809;51.864;5.646;2023-04-15T13:35:03;14.40;1.00
42141;DHT22;27809;51.864;5.646;2023-04-15T13:37:29;14.00;1.00
42141;DHT22;27809;51.864;5.646;2023-04-15T13:39:55;14.20;1.10
42141;DHT22;27809;51.864;5.646;2023-04-15T13:42:22;13.70;2.60
42141;DHT22;27809;51.864;5.646;2023-04-15T13:44:49;15.00;1.30
42141;DHT22;27809;51.864;5.646;2023-04-15T13:47:15;14.40;6.50
42141;DHT22;27809;51.864;5.646;2023-04-15T13:49:41;14.20;1.00
42141;DHT22;27809;51.864;5.646;2023-04-15T13:52:06;14.00;4.20
42141;DHT22;27809;51.864;5.646;2023-04-15T13:54:32;13.80;8.20
42141;DHT22;27809;51.864;5.646;2023-04-15T13:56:57;13.80;9.10
42141;DHT22;27809;51.864;5.646;2023-04-15T13:59:23;13.60;4.70
42141;DHT22;27809;51.864;5.646;2023-04-15T14:01:48;13.50;6.00
42141;DHT22;27809;51.864;5.646;2023-04-15T14:04:14;12.80;12.20
42141;DHT22;27809;51.864;5.646;2023-04-15T14:06:39;12.60;11.70
42141;DHT22;27809;51.864;5.646;2023-04-15T14:09:05;12.80;8.10
42141;DHT22;27809;51.864;5.646;2023-04-15T14:11:31;13.20;9.40
42141;DHT22;27809;51.864;5.646;2023-04-15T14:13:56;13.40;6.60
42141;DHT22;27809;51.864;5.646;2023-04-15T14:16:22;13.20;10.60
42141;DHT22;27809;51.864;5.646;2023-04-15T14:18:48;12.90;11.20
42141;DHT22;27809;51.864;5.646;2023-04-15T14:21:13;12.60;13.50
42141;DHT22;27809;51.864;5.646;2023-04-15T14:23:39;12.70;18.50
42141;DHT22;27809;51.864;5.646;2023-04-15T14:26:04;14.10;17.20
42141;DHT22;27809;51.864;5.646;2023-04-15T14:28:30;14.10;12.40
42141;DHT22;27809;51.864;5.646;2023-04-15T14:30:56;13.70;15.70
42141;DHT22;27809;51.864;5.646;2023-04-15T14:33:22;13.20;15.70
42141;DHT22;27809;51.864;5.646;2023-04-15T14:35:48;13.00;16.80
42141;DHT22;27809;51.864;5.646;2023-04-15T14:38:14;12.70;16.30
42141;DHT22;27809;51.864;5.646;2023-04-15T14:40:40;12.90;15.10
42141;DHT22;27809;51.864;5.646;2023-04-15T14:43:05;12.80;19.90
42141;DHT22;27809;51.864;5.646;2023-04-15T14:45:31;12.70;16.30
42141;DHT22;27809;51.864;5.646;2023-04-15T14:47:57;12.70;17.40
42141;DHT22;27809;51.864;5.646;2023-04-15T14:50:23;12.20;19.90
42141;DHT22;27809;51.864;5.646;2023-04-15T14:52:48;12.00;19.90
42141;DHT22;27809;51.864;5.646;2023-04-15T14:55:14;12.20;23.90
42141;DHT22;27809;51.864;5.646;2023-04-15T14:57:41;12.00;17.60
42141;DHT22;27809;51.864;5.646;2023-04-15T15:00:08;11.80;20.50
42141;DHT22;27809;51.864;5.646;2023-04-15T15:02:34;12.00;31.60
42141;DHT22;27809;51.864;5.646;2023-04-15T15:05:01;11.50;25.10
42141;DHT22;27809;51.864;5.646;2023-04-15T15:07:27;11.30;31.50
42141;DHT22;27809;51.864;5.646;2023-04-15T15:09:53;11.30;40.20
42141;DHT22;27809;51.864;5.646;2023-04-15T15:12:19;11.30;36.40
42141;DHT22;27809;51.864;5.646;2023-04-15T15:14:47;11.30;41.90
42141;DHT22;27809;51.864;5.646;2023-04-15T15:17:13;11.20;43.70
42141;DHT22;27809;51.864;5.646;2023-04-15T15:19:39;11.10;38.80
42141;DHT22;27809;51.864;5.646;2023-04-15T15:22:04;11.10;38.40
42141;DHT22;27809;51.864;5.646;2023-04-15T15:24:30;10.90;38.60
42141;DHT22;27809;51.864;5.646;2023-04-15T15:26:56;10.90;42.90
42141;DHT22;27809;51.864;5.646;2023-04-15T15:29:22;10.90;46.00
42141;DHT22;27809;51.864;5.646;2023-04-15T15:31:47;11.00;50.50
42141;DHT22;27809;51.864;5.646;2023-04-15T15:34:13;10.90;47.40
42141;DHT22;27809;51.864;5.646;2023-04-15T15:36:38;10.80;42.90
42141;DHT22;27809;51.864;5.646;2023-04-15T15:39:04;10.60;52.50
42141;DHT22;27809;51.864;5.646;2023-04-15T15:41:29;10.50;56.40
42141;DHT22;27809;51.864;5.646;2023-04-15T15:43:57;10.60;56.10
42141;DHT22;27809;51.864;5.646;2023-04-15T15:46:23;10.50;60.90
42141;DHT22;27809;51.864;5.646;2023-04-15T15:48:49;10.40;57.70
42141;DHT22;27809;51.864;5.646;2023-04-15T15:51:14;10.40;57.10
42141;DHT22;27809;51.864;5.646;2023-04-15T15:53:40;10.50;53.60